createdAt,value
2022-11-05T00:01:39.758Z,97102.59
2022-11-05T00:05:00.466Z,97115.59
2022-11-05T00:08:23.006Z,97117.06
2022-11-05T00:11:45.141Z,97121.09
2022-11-05T00:15:05.775Z,97124.78
2022-11-05T00:18:07.881Z,97124.91
2022-11-05T00:21:29.881Z,97145.91
2022-11-05T00:24:50.186Z,97151.16
2022-11-05T00:27:53.740Z,97167.38
2022-11-05T00:31:01.821Z,97153.94
2022-11-05T00:34:04.254Z,97163.22
2022-11-05T00:37:06.322Z,97159.66
2022-11-05T00:40:09.759Z,97178.75
2022-11-05T00:43:30.330Z,97183.78
2022-11-05T00:46:32.420Z,97189.72
2022-11-05T00:49:34.499Z,97205.97
2022-11-05T00:52:55.714Z,97194.53
2022-11-05T00:55:57.834Z,97186.41
2022-11-05T00:58:59.821Z,97197.63
2022-11-05T01:02:01.985Z,97183.47
2022-11-05T01:05:04.590Z,97194.44
2022-11-05T01:08:07.165Z,97186.56
2022-11-05T01:11:33.370Z,97192.53
2022-11-05T01:14:35.697Z,97218.06
2022-11-05T01:17:37.777Z,97250.38
2022-11-05T01:20:40.522Z,97260.78
2022-11-05T01:23:42.660Z,97254.00
2022-11-05T01:26:44.622Z,97221.16
2022-11-05T01:29:46.640Z,97206.81
2022-11-05T01:32:48.737Z,97206.91
2022-11-05T01:35:51.965Z,97194.66
2022-11-05T01:38:54.048Z,97202.41
2022-11-05T01:41:56.247Z,97189.88
2022-11-05T01:45:03.402Z,97197.75
2022-11-05T01:48:16.022Z,97220.88
2022-11-05T01:51:22.435Z,97230.16
2022-11-05T01:54:29.951Z,97241.06
2022-11-05T01:57:33.327Z,97241.75
2022-11-05T02:00:36.546Z,97239.22
2022-11-05T02:03:39.995Z,97234.81
2022-11-05T02:06:46.420Z,97228.84
2022-11-05T02:09:52.444Z,97231.91
2022-11-05T02:12:54.682Z,97234.75
2022-11-05T02:16:19.872Z,97225.00
2022-11-05T02:19:54.717Z,97243.16
2022-11-05T02:23:11.817Z,97216.09
2022-11-05T02:26:36.562Z,97223.00
2022-11-05T02:29:50.555Z,97217.75
2022-11-05T02:33:20.939Z,97229.09
2022-11-05T02:36:38.527Z,97229.13
2022-11-05T02:39:52.290Z,97228.50
2022-11-05T02:42:54.229Z,97235.09
2022-11-05T02:45:56.141Z,97232.38
2022-11-05T02:49:19.326Z,97234.44
2022-11-05T02:52:42.624Z,97222.06
2022-11-05T02:55:54.212Z,97219.09
2022-11-05T02:58:56.221Z,97218.97
2022-11-05T03:01:59.944Z,97227.22
2022-11-05T03:05:03.184Z,97226.63
2022-11-05T03:08:16.602Z,97241.53
2022-11-05T03:11:22.630Z,97244.59
2022-11-05T03:14:27.621Z,97245.59
2022-11-05T03:18:04.561Z,97237.28
2022-11-05T03:21:17.612Z,97242.75
2022-11-05T03:24:25.406Z,97242.13
2022-11-05T03:27:31.745Z,97238.28
2022-11-05T03:30:37.822Z,97244.56
2022-11-05T03:33:41.997Z,97245.16
2022-11-05T03:36:52.397Z,97252.06
2022-11-05T03:39:59.246Z,97255.69
2022-11-05T03:43:03.987Z,97251.06
2022-11-05T03:46:33.118Z,97252.88
2022-11-05T03:49:41.395Z,97247.72
2022-11-05T03:52:53.339Z,97254.03
2022-11-05T03:56:19.616Z,97245.41
2022-11-05T03:59:22.801Z,97232.66
2022-11-05T04:02:27.166Z,97225.28
2022-11-05T04:05:29.262Z,97226.75
2022-11-05T04:08:49.561Z,97224.13
2022-11-05T04:12:10.253Z,97218.97
2022-11-05T04:15:12.273Z,97217.81
2022-11-05T04:18:14.262Z,97225.91
2022-11-05T04:21:34.626Z,97221.81
2022-11-05T04:24:36.735Z,97234.44
2022-11-05T04:27:38.975Z,97244.28
2022-11-05T04:30:41.744Z,97247.75
2022-11-05T04:33:43.762Z,97259.94
2022-11-05T04:36:46.893Z,97272.09
2022-11-05T04:39:49.027Z,97262.75
2022-11-05T04:42:51.033Z,97269.09
2022-11-05T04:45:53.188Z,97280.28
2022-11-05T04:48:55.210Z,97299.72
2022-11-05T04:51:57.246Z,97306.63
2022-11-05T04:54:59.348Z,97324.84
2022-11-05T04:58:01.383Z,97328.44
2022-11-05T05:01:03.504Z,97322.56
2022-11-05T05:04:05.561Z,97325.28
2022-11-05T05:07:07.703Z,97313.34
2022-11-05T05:10:10.646Z,97315.34
2022-11-05T05:13:12.922Z,97315.66
2022-11-05T05:16:26.788Z,97318.28
2022-11-05T05:19:29.374Z,97321.53
2022-11-05T05:22:31.417Z,97319.66
2022-11-05T05:25:33.412Z,97310.09
2022-11-05T05:28:35.875Z,97323.00
2022-11-05T05:31:38.443Z,97333.16
2022-11-05T05:34:40.490Z,97345.81
2022-11-05T05:37:43.168Z,97348.25
2022-11-05T05:40:45.326Z,97349.44
2022-11-05T05:43:47.355Z,97357.19
2022-11-05T05:46:49.392Z,97358.97
2022-11-05T05:49:51.459Z,97368.63
2022-11-05T05:52:54.083Z,97368.72
2022-11-05T05:55:57.416Z,97365.75
2022-11-05T05:58:59.568Z,97380.56
2022-11-05T06:02:01.987Z,97370.06
2022-11-05T06:05:04.477Z,97370.81
2022-11-05T06:08:06.654Z,97375.84
2022-11-05T06:11:09.464Z,97377.44
2022-11-05T06:14:13.305Z,97382.66
2022-11-05T06:17:15.386Z,97380.88
2022-11-05T06:20:17.601Z,97387.69
2022-11-05T06:23:19.834Z,97390.00
2022-11-05T06:26:21.955Z,97393.03
2022-11-05T06:29:24.042Z,97405.00
2022-11-05T06:32:26.197Z,97416.94
2022-11-05T06:35:28.294Z,97421.88
2022-11-05T06:38:33.222Z,97427.75
2022-11-05T06:41:45.709Z,97433.41
2022-11-05T06:44:57.461Z,97434.25
2022-11-05T06:48:00.089Z,97429.72
2022-11-05T06:51:03.065Z,97440.13
2022-11-05T06:54:05.277Z,97445.13
2022-11-05T06:57:09.803Z,97446.59
2022-11-05T07:00:12.398Z,97447.00
2022-11-05T07:03:15.124Z,97456.13
2022-11-05T07:06:17.588Z,97460.22
2022-11-05T07:09:19.642Z,97465.75
2022-11-05T07:12:21.763Z,97457.56
2022-11-05T07:15:23.860Z,97470.25
2022-11-05T07:18:25.940Z,97466.78
2022-11-05T07:21:29.233Z,97473.16
2022-11-05T07:24:31.320Z,97469.16
2022-11-05T07:27:38.342Z,97472.28
2022-11-05T07:30:40.402Z,97454.00
2022-11-05T07:33:42.583Z,97471.97
2022-11-05T07:36:44.720Z,97464.69
2022-11-05T07:39:46.754Z,97482.28
2022-11-05T07:42:51.925Z,97483.41
2022-11-05T07:45:54.071Z,97489.19
2022-11-05T07:48:56.209Z,97492.19
2022-11-05T07:51:58.319Z,97487.44
2022-11-05T07:55:00.365Z,97494.25
2022-11-05T07:58:03.115Z,97488.44
2022-11-05T08:01:07.357Z,97490.53
2022-11-05T08:04:09.551Z,97484.38
2022-11-05T08:07:11.614Z,97485.56
2022-11-05T08:10:13.652Z,97486.03
2022-11-05T08:13:16.210Z,97477.81
2022-11-05T08:16:18.566Z,97487.38
2022-11-05T08:19:20.708Z,97491.34
2022-11-05T08:22:22.770Z,97498.78
2022-11-05T08:25:25.375Z,97494.09
2022-11-05T08:28:27.510Z,97495.69
2022-11-05T08:31:31.228Z,97504.06
2022-11-05T08:34:33.330Z,97491.50
2022-11-05T08:37:35.388Z,97489.72
2022-11-05T08:40:38.139Z,97493.19
2022-11-05T08:43:40.183Z,97495.34
2022-11-05T08:46:42.253Z,97508.75
2022-11-05T08:49:44.375Z,97501.09
2022-11-05T08:52:46.442Z,97526.22
2022-11-05T08:55:50.238Z,97513.06
2022-11-05T08:58:52.369Z,97509.72
2022-11-05T09:01:55.866Z,97518.94
2022-11-05T09:04:58.060Z,97512.84
2022-11-05T09:08:01.674Z,97525.91
2022-11-05T09:11:03.860Z,97511.25
2022-11-05T09:14:05.971Z,97512.66
2022-11-05T09:17:21.825Z,97514.84
2022-11-05T09:20:25.238Z,97523.09
2022-11-05T09:23:27.300Z,97527.06
2022-11-05T09:26:29.351Z,97531.25
2022-11-05T09:29:31.423Z,97520.53
2022-11-05T09:32:34.120Z,97511.16
2022-11-05T09:35:39.213Z,97508.19
2022-11-05T09:38:41.378Z,97523.41
2022-11-05T09:41:45.170Z,97519.44
2022-11-05T09:44:51.886Z,97531.78
2022-11-05T09:48:08.697Z,97525.56
2022-11-05T09:51:19.280Z,97514.06
2022-11-05T09:54:28.554Z,97534.22
2022-11-05T09:58:00.957Z,97540.66
2022-11-05T10:01:07.830Z,97542.34
2022-11-05T10:04:17.028Z,97540.56
2022-11-05T10:07:23.951Z,97540.56
2022-11-05T10:10:43.726Z,97557.13
2022-11-05T10:13:53.875Z,97553.03
2022-11-05T10:17:05.446Z,97562.00
2022-11-05T10:20:31.539Z,97556.09
2022-11-05T10:23:34.083Z,97564.13
2022-11-05T10:26:36.262Z,97563.09
2022-11-05T10:29:38.505Z,97561.16
2022-11-05T10:32:42.969Z,97564.91
2022-11-05T10:35:51.140Z,97567.44
2022-11-05T10:38:57.530Z,97568.16
2022-11-05T10:42:42.528Z,97575.00
2022-11-05T10:46:13.534Z,97587.03
2022-11-05T10:49:40.248Z,97588.63
2022-11-05T10:53:07.104Z,97581.19
2022-11-05T10:56:36.174Z,97578.09
2022-11-05T10:59:38.220Z,97563.25
2022-11-05T11:02:40.271Z,97579.41
2022-11-05T11:05:42.412Z,97579.88
2022-11-05T11:08:46.964Z,97575.75
2022-11-05T11:11:59.676Z,97577.41
2022-11-05T11:15:15.600Z,97574.19
2022-11-05T11:18:35.895Z,97581.22
2022-11-05T11:21:41.920Z,97582.47
2022-11-05T11:24:54.380Z,97572.19
2022-11-05T11:28:01.505Z,97575.41
2022-11-05T11:31:11.541Z,97582.47
2022-11-05T11:34:35.773Z,97587.72
2022-11-05T11:37:42.332Z,97590.91
2022-11-05T11:40:45.486Z,97583.47
2022-11-05T11:43:47.723Z,97594.53
2022-11-05T11:46:52.618Z,97596.31
2022-11-05T11:49:59.841Z,97599.88
2022-11-05T11:53:21.486Z,97609.22
2022-11-05T11:56:23.571Z,97601.66
2022-11-05T12:00:01.952Z,97612.19
2022-11-05T12:03:17.842Z,97612.88
2022-11-05T12:06:57.809Z,97615.88
2022-11-05T12:10:22.255Z,97618.53
2022-11-05T12:13:24.450Z,97616.47
2022-11-05T12:16:40.534Z,97626.53
2022-11-05T12:20:11.747Z,97620.31
2022-11-05T12:23:44.317Z,97621.03
2022-11-05T12:27:01.855Z,97626.75
2022-11-05T12:30:10.811Z,97630.44
2022-11-05T12:33:22.261Z,97624.81
2022-11-05T12:36:42.789Z,97625.88
2022-11-05T12:40:17.207Z,97633.88
2022-11-05T12:43:31.341Z,97635.56
2022-11-05T12:47:14.450Z,97637.84
2022-11-05T12:50:24.997Z,97638.59
2022-11-05T12:53:34.991Z,97640.50
2022-11-05T12:56:44.762Z,97638.81
2022-11-05T12:59:52.761Z,97635.13
2022-11-05T13:03:19.658Z,97643.84
2022-11-05T13:06:30.158Z,97648.59
2022-11-05T13:10:05.277Z,97653.50
2022-11-05T13:13:16.150Z,97652.75
2022-11-05T13:16:37.822Z,97660.19
2022-11-05T13:19:49.339Z,97653.66
2022-11-05T13:23:01.089Z,97643.75
2022-11-05T13:26:20.026Z,97649.13
2022-11-05T13:29:33.148Z,97667.44
2022-11-05T13:32:43.692Z,97657.34
2022-11-05T13:36:16.787Z,97661.88
2022-11-05T13:39:25.226Z,97675.41
2022-11-05T13:42:55.953Z,97673.94
2022-11-05T13:46:11.960Z,97678.34
2022-11-05T13:49:36.478Z,97677.50
2022-11-05T13:53:09.801Z,97691.50
2022-11-05T13:56:30.927Z,97692.25
2022-11-05T13:59:55.246Z,97689.28
2022-11-05T14:03:02.725Z,97689.88
2022-11-05T14:06:08.053Z,97703.03
2022-11-05T14:09:12.083Z,97698.72
2022-11-05T14:12:31.509Z,97711.66
2022-11-05T14:15:34.280Z,97713.13
2022-11-05T14:18:43.924Z,97720.19
2022-11-05T14:21:49.942Z,97708.09
2022-11-05T14:25:07.628Z,97717.66
2022-11-05T14:28:49.937Z,97723.88
2022-11-05T14:32:08.337Z,97726.97
2022-11-05T14:35:17.860Z,97725.91
2022-11-05T14:38:28.917Z,97736.31
2022-11-05T14:41:31.341Z,97731.06
2022-11-05T14:44:36.093Z,97722.41
2022-11-05T14:47:43.007Z,97722.88
2022-11-05T14:50:45.392Z,97719.31
2022-11-05T14:53:51.097Z,97719.41
2022-11-05T14:56:59.978Z,97713.50
2022-11-05T15:00:03.068Z,97716.28
2022-11-05T15:03:39.766Z,97733.72
2022-11-05T15:07:06.088Z,97734.47
2022-11-05T15:10:12.819Z,97740.56
2022-11-05T15:13:55.418Z,97745.00
2022-11-05T15:17:09.427Z,97748.47
2022-11-05T15:20:18.172Z,97763.41
2022-11-05T15:23:26.309Z,97751.09
2022-11-05T15:27:00.740Z,97760.69
2022-11-05T15:30:15.815Z,97773.09
2022-11-05T15:33:21.593Z,97774.88
2022-11-05T15:36:29.601Z,97770.47
2022-11-05T15:39:52.548Z,97777.75
2022-11-05T15:43:13.301Z,97767.75
2022-11-05T15:46:30.337Z,97771.47
2022-11-05T15:49:32.888Z,97762.94
2022-11-05T15:52:42.353Z,97764.84
2022-11-05T15:55:55.256Z,97772.25
2022-11-05T15:59:04.198Z,97762.66
2022-11-05T16:02:26.859Z,97770.56
2022-11-05T16:05:35.154Z,97780.66
2022-11-05T16:08:38.116Z,97776.56
2022-11-05T16:11:40.933Z,97782.25
2022-11-05T16:14:43.238Z,97792.16
2022-11-05T16:17:59.175Z,97792.38
2022-11-05T16:21:23.392Z,97797.97
2022-11-05T16:24:29.315Z,97799.66
2022-11-05T16:27:32.369Z,97797.81
2022-11-05T16:30:34.756Z,97802.88
2022-11-05T16:33:46.194Z,97798.16
2022-11-05T16:36:49.070Z,97802.25
2022-11-05T16:39:56.273Z,97807.41
2022-11-05T16:43:16.138Z,97811.81
2022-11-05T16:46:19.278Z,97824.22
2022-11-05T16:49:21.646Z,97824.13
2022-11-05T16:52:24.351Z,97825.91
2022-11-05T16:55:26.534Z,97833.28
2022-11-05T16:58:29.618Z,97844.97
2022-11-05T17:01:34.411Z,97845.28
2022-11-05T17:04:37.423Z,97847.94
2022-11-05T17:07:41.490Z,97852.94
2022-11-05T17:10:44.386Z,97865.81
2022-11-05T17:13:48.115Z,97868.53
2022-11-05T17:16:50.947Z,97872.09
2022-11-05T17:19:54.082Z,97868.72
2022-11-05T17:22:57.555Z,97874.84
2022-11-05T17:26:03.565Z,97881.78
2022-11-05T17:29:06.537Z,97882.63
2022-11-05T17:32:09.365Z,97883.47
2022-11-05T17:35:13.701Z,97893.16
2022-11-05T17:38:17.052Z,97897.56
2022-11-05T17:41:22.326Z,97898.59
2022-11-05T17:44:25.040Z,97909.25
2022-11-05T17:47:28.029Z,97903.03
2022-11-05T17:50:30.750Z,97913.53
2022-11-05T17:53:37.313Z,97922.28
2022-11-05T17:56:44.890Z,97919.03
2022-11-05T17:59:47.541Z,97919.22
2022-11-05T18:02:52.598Z,97921.84
2022-11-05T18:06:07.553Z,97917.59
2022-11-05T18:09:11.582Z,97915.19
2022-11-05T18:12:14.748Z,97916.34
2022-11-05T18:15:18.643Z,97920.00
2022-11-05T18:18:22.125Z,97926.09
2022-11-05T18:21:25.406Z,97919.06
2022-11-05T18:24:28.280Z,97919.06
2022-11-05T18:27:32.169Z,97934.75
2022-11-05T18:30:36.351Z,97934.84
2022-11-05T18:33:39.508Z,97939.91
2022-11-05T18:36:48.096Z,97938.88
2022-11-05T18:39:53.748Z,97945.91
2022-11-05T18:42:57.250Z,97946.00
2022-11-05T18:46:00.466Z,97941.59
2022-11-05T18:49:03.399Z,97947.78
2022-11-05T18:52:06.928Z,97943.66
2022-11-05T18:55:10.351Z,97947.38
2022-11-05T18:58:13.348Z,97952.91
2022-11-05T19:01:22.234Z,97958.38
2022-11-05T19:04:26.849Z,97958.69
2022-11-05T19:07:29.945Z,97963.47
2022-11-05T19:10:32.794Z,97970.00
2022-11-05T19:13:35.714Z,97969.34
2022-11-05T19:16:39.140Z,97982.97
2022-11-05T19:19:41.979Z,97974.41
2022-11-05T19:22:44.895Z,97981.53
2022-11-05T19:25:47.990Z,97977.63
2022-11-05T19:28:50.961Z,97982.47
2022-11-05T19:31:53.877Z,97994.31
2022-11-05T19:34:56.984Z,97994.03
2022-11-05T19:37:59.533Z,97991.88
2022-11-05T19:41:17.340Z,98004.84
2022-11-05T19:44:20.567Z,98000.91
2022-11-05T19:47:23.726Z,98007.56
2022-11-05T19:50:28.929Z,98006.81
2022-11-05T19:53:32.109Z,98015.53
2022-11-05T19:56:37.056Z,98024.03
2022-11-05T19:59:39.739Z,98007.09
2022-11-05T20:02:46.894Z,98024.44
2022-11-05T20:05:49.986Z,98024.25
2022-11-05T20:09:20.103Z,98024.81
2022-11-05T20:12:16.454Z,98024.03
2022-11-05T20:15:20.469Z,98024.03
2022-11-05T20:18:25.212Z,98025.81
2022-11-05T20:21:29.123Z,98027.25
2022-11-05T20:24:32.333Z,98034.44
2022-11-05T20:27:35.482Z,98042.78
2022-11-05T20:30:41.308Z,98042.50
2022-11-05T20:33:45.300Z,98043.22
2022-11-05T20:36:48.393Z,98046.66
2022-11-05T20:39:51.570Z,98054.03
2022-11-05T20:43:03.847Z,98046.88
2022-11-05T20:46:07.351Z,98042.16
2022-11-05T20:49:10.502Z,98051.38
2022-11-05T20:52:18.072Z,98055.72
2022-11-05T20:55:21.185Z,98051.94
2022-11-05T20:58:24.126Z,98053.31
2022-11-05T21:01:32.122Z,98056.38
2022-11-05T21:04:35.217Z,98062.81
2022-11-05T21:07:38.297Z,98057.16
2022-11-05T21:10:41.533Z,98060.00
2022-11-05T21:13:44.455Z,98060.50
2022-11-05T21:16:47.288Z,98059.41
2022-11-05T21:19:50.164Z,98073.66
2022-11-05T21:22:53.738Z,98061.91
2022-11-05T21:25:56.839Z,98069.09
2022-11-05T21:28:59.638Z,98070.09
2022-11-05T21:32:02.578Z,98075.56
2022-11-05T21:35:14.977Z,98069.66
2022-11-05T21:38:18.129Z,98066.38
2022-11-05T21:41:21.550Z,98073.63
2022-11-05T21:44:24.079Z,98073.50
2022-11-05T21:47:29.559Z,98064.16
2022-11-05T21:50:50.614Z,98067.63
2022-11-05T21:54:11.651Z,98068.63
2022-11-05T21:57:34.586Z,98066.13
2022-11-05T22:00:39.077Z,98057.66
2022-11-05T22:03:41.301Z,98063.16
2022-11-05T22:06:43.469Z,98060.75
2022-11-05T22:09:46.553Z,98067.06
2022-11-05T22:12:48.840Z,98074.47
2022-11-05T22:15:57.561Z,98071.28
2022-11-05T22:19:00.179Z,98075.94
2022-11-05T22:22:03.731Z,98080.81
2022-11-05T22:25:06.091Z,98076.81
2022-11-05T22:28:08.228Z,98080.50
2022-11-05T22:31:15.081Z,98082.44
2022-11-05T22:34:17.413Z,98085.06
2022-11-05T22:37:19.566Z,98073.81
2022-11-05T22:40:23.975Z,98082.22
2022-11-05T22:43:26.454Z,98076.34
2022-11-05T22:46:28.602Z,98081.91
2022-11-05T22:49:30.609Z,98082.13
2022-11-05T22:52:32.991Z,98081.53
2022-11-05T22:55:39.698Z,98082.84
2022-11-05T22:58:42.116Z,98088.97
2022-11-05T23:01:45.564Z,98077.81
2022-11-05T23:04:49.691Z,98091.03
2022-11-05T23:08:10.864Z,98091.03
2022-11-05T23:11:38.726Z,98087.66
2022-11-05T23:14:40.848Z,98086.03
2022-11-05T23:18:01.236Z,98085.34
2022-11-05T23:21:23.187Z,98082.97
2022-11-05T23:24:25.582Z,98084.16
2022-11-05T23:27:33.960Z,98082.66
2022-11-05T23:30:57.942Z,98077.63
2022-11-05T23:34:00.081Z,98064.69
2022-11-05T23:37:21.488Z,98070.78
2022-11-05T23:40:52.201Z,98076.94
2022-11-05T23:44:12.706Z,98073.63
2022-11-05T23:47:33.320Z,98075.53
2022-11-05T23:50:39.817Z,98081.53
2022-11-05T23:53:42.518Z,98081.66
2022-11-05T23:56:44.648Z,98079.97
2022-11-05T23:59:46.694Z,98084.34
